Brewster, WA (98812)

5:19 PM PST on December 21, 2014 (GMT -0800)
Silver Spur Resort | Change Station
CLOSE
Current Station
Personal Weather Station
Location: Brewster, WA
Elevation: 1476 ft
Nearby Weather Stations

Elev 1476 ft 48.17 °N, 119.73 °W | Updated 9 minutes ago

Partly Cloudy
Partly Cloudy
42.0 °F
Feels Like 35 °F
N
14.0
Wind Variable Wind from SSW
Gusts 20.0 mph

Today
High -- | Low -- °F
--% Chance of Precip.
Yesterday
High -- | Low -- °F
Precip. -- in
7:46 AM 4:07 PM
Waning Crescent, 0% visible
Pressure 29.93 in
Visibility 10.0 miles
Clouds Clear
Windchill 35 °F
Dew Point 37 °F
Humidity 81%
Rainfall 0.02 in
Snow Depth Not available.
UV 0 out of 12
Pollen .10 out of 12
Air Quality Not available.
Flu Activity Not available.
METAR KOMK 220053Z AUTO 16011KT 10SM CLR 07/01 A2990 RMK AO2 SLP134 T00670011

More Conditions Fewer Conditions

Pressure 29.93 in
Visibility 10.0 miles
Clouds Clear
Windchill 35 °F
Dew Point 37 °F
Humidity 81%
Rainfall 0.02 in
Snow Depth Not available.
UV 0 out of 12
Pollen .10 out of 12
Air Quality Not available.
Flu Activity Not available.
METAR KOMK 220053Z AUTO 16011KT 10SM CLR 07/01 A2990 RMK AO2 SLP134 T00670011

More Conditions Fewer Conditions

10-Day Weather Forecast

Almanac

Astronomy

Dec. 21, 2014 Rise Set
Actual Time
Civil Twilight
Nautical Twilight
Astronomical Twilight
Moon
Length of Visible Light
Length of Day
Tomorrow will be .
, % of the Moon is Illuminated

Today's Extremes

State Highs State Lows

Community

WunderPhotos

Upload Photos

1,779,511 photos uploaded!

WunderBlogs® & News

Nearby

Air Quality

  Air Quality AQ Index Pollutant
Not available.

Snow Depth

Station Depth Elevation

Earthquake Activity

City Distance Mag. Time & Date
Minimum magnitude displayed is 2.5.

Coastal Water Temperatures

Place Temperature

Nearby Weather Stations